sensor_id;sensor_type;location;lat;lon;timestamp;pressure;altitude;pressure_sealevel;temperature;humidity
44198;BME280;30157;55.512;37.764;2022-10-16T00:01:51;101270.31;;;2.31;76.66
44198;BME280;30157;55.512;37.764;2022-10-16T00:04:17;101249.75;;;2.13;76.81
44198;BME280;30157;55.512;37.764;2022-10-16T00:06:43;101277.94;;;2.30;76.73
44198;BME280;30157;55.512;37.764;2022-10-16T00:09:08;101214.47;;;1.91;76.83
44198;BME280;30157;55.512;37.764;2022-10-16T00:11:36;101280.06;;;2.22;76.63
44198;BME280;30157;55.512;37.764;2022-10-16T00:14:04;101252.41;;;1.98;76.90
44198;BME280;30157;55.512;37.764;2022-10-16T00:16:31;101286.75;;;2.18;76.83
44198;BME280;30157;55.512;37.764;2022-10-16T00:18:56;101263.78;;;2.04;76.91
44198;BME280;30157;55.512;37.764;2022-10-16T00:21:28;101234.84;;;1.90;76.61
44198;BME280;30157;55.512;37.764;2022-10-16T00:24:12;101289.16;;;2.15;76.81
44198;BME280;30157;55.512;37.764;2022-10-16T00:26:39;101286.47;;;2.14;76.79
44198;BME280;30157;55.512;37.764;2022-10-16T00:29:05;101284.56;;;2.10;77.09
44198;BME280;30157;55.512;37.764;2022-10-16T00:31:31;101282.81;;;2.09;76.73
44198;BME280;30157;55.512;37.764;2022-10-16T00:33:57;101274.72;;;2.01;76.98
44198;BME280;30157;55.512;37.764;2022-10-16T00:36:24;101283.34;;;2.03;77.05
44198;BME280;30157;55.512;37.764;2022-10-16T00:38:52;101288.47;;;2.03;77.18
44198;BME280;30157;55.512;37.764;2022-10-16T00:41:22;101295.28;;;2.03;76.88
44198;BME280;30157;55.512;37.764;2022-10-16T00:43:56;101289.31;;;2.02;77.19
44198;BME280;30157;55.512;37.764;2022-10-16T00:49:04;101295.94;;;1.98;77.10
44198;BME280;30157;55.512;37.764;2022-10-16T00:51:51;101278.22;;;1.87;77.24
44198;BME280;30157;55.512;37.764;2022-10-16T00:54:21;101281.66;;;1.87;77.13
44198;BME280;30157;55.512;37.764;2022-10-16T00:56:48;101282.47;;;1.86;77.16
44198;BME280;30157;55.512;37.764;2022-10-16T00:59:24;101288.53;;;1.88;77.33
44198;BME280;30157;55.512;37.764;2022-10-16T01:01:52;101290.94;;;1.85;77.23
44198;BME280;30157;55.512;37.764;2022-10-16T01:04:17;101238.88;;;1.53;77.24
44198;BME280;30157;55.512;37.764;2022-10-16T01:13:06;101302.59;;;1.80;77.35
44198;BME280;30157;55.512;37.764;2022-10-16T01:20:44;101321.94;;;1.75;77.62
44198;BME280;30157;55.512;37.764;2022-10-16T01:28:45;101302.56;;;1.63;77.87
44198;BME280;30157;55.512;37.764;2022-10-16T01:31:18;101312.25;;;1.69;77.71
44198;BME280;30157;55.512;37.764;2022-10-16T01:33:47;101316.66;;;1.72;77.47
44198;BME280;30157;55.512;37.764;2022-10-16T01:36:21;101316.50;;;1.68;77.76
44198;BME280;30157;55.512;37.764;2022-10-16T01:38:52;101293.84;;;1.60;77.12
44198;BME280;30157;55.512;37.764;2022-10-16T01:41:27;101318.25;;;1.70;77.38
44198;BME280;30157;55.512;37.764;2022-10-16T01:44:05;101307.53;;;1.60;77.19
44198;BME280;30157;55.512;37.764;2022-10-16T01:46:33;101329.31;;;1.68;77.41
44198;BME280;30157;55.512;37.764;2022-10-16T01:49:00;101259.94;;;1.32;77.21
44198;BME280;30157;55.512;37.764;2022-10-16T01:51:29;101279.00;;;1.38;77.52
44198;BME280;30157;55.512;37.764;2022-10-16T01:53:57;101322.06;;;1.61;77.55
44198;BME280;30157;55.512;37.764;2022-10-16T01:56:25;101250.50;;;1.16;77.56
44198;BME280;30157;55.512;37.764;2022-10-16T01:58:58;101329.59;;;1.58;77.82
44198;BME280;30157;55.512;37.764;2022-10-16T02:01:28;101326.78;;;1.54;77.46
44198;BME280;30157;55.512;37.764;2022-10-16T02:03:57;101215.53;;;0.86;77.62
44198;BME280;30157;55.512;37.764;2022-10-16T02:06:24;101311.69;;;1.43;78.11
44198;BME280;30157;55.512;37.764;2022-10-16T02:08:51;101301.09;;;1.37;77.85
44198;BME280;30157;55.512;37.764;2022-10-16T02:11:16;101283.22;;;1.22;77.98
44198;BME280;30157;55.512;37.764;2022-10-16T02:13:48;101323.78;;;1.46;78.05
44198;BME280;30157;55.512;37.764;2022-10-16T02:16:17;101316.81;;;1.43;77.73
44198;BME280;30157;55.512;37.764;2022-10-16T02:18:43;101334.66;;;1.42;78.13
44198;BME280;30157;55.512;37.764;2022-10-16T02:21:22;101333.50;;;1.37;78.54
44198;BME280;30157;55.512;37.764;2022-10-16T02:26:49;101335.00;;;1.33;78.57
44198;BME280;30157;55.512;37.764;2022-10-16T02:29:20;101332.03;;;1.25;78.73
44198;BME280;30157;55.512;37.764;2022-10-16T02:31:52;101334.03;;;1.31;78.59
44198;BME280;30157;55.512;37.764;2022-10-16T02:34:20;101272.16;;;0.92;78.95
44198;BME280;30157;55.512;37.764;2022-10-16T02:36:47;101343.38;;;1.30;78.72
44198;BME280;30157;55.512;37.764;2022-10-16T02:39:14;101319.75;;;1.20;78.45
44198;BME280;30157;55.512;37.764;2022-10-16T02:41:43;101312.78;;;1.17;78.44
44198;BME280;30157;55.512;37.764;2022-10-16T02:44:09;101352.19;;;1.36;78.42
44198;BME280;30157;55.512;37.764;2022-10-16T02:46:35;101334.81;;;1.30;78.20
44198;BME280;30157;55.512;37.764;2022-10-16T02:49:00;101279.38;;;0.99;77.99
44198;BME280;30157;55.512;37.764;2022-10-16T02:51:26;101341.50;;;1.28;78.23
44198;BME280;30157;55.512;37.764;2022-10-16T02:53:52;101333.84;;;1.28;78.04
44198;BME280;30157;55.512;37.764;2022-10-16T02:56:18;101271.78;;;0.86;78.20
44198;BME280;30157;55.512;37.764;2022-10-16T02:58:44;101324.25;;;1.09;77.97
44198;BME280;30157;55.512;37.764;2022-10-16T03:01:09;101329.81;;;1.02;78.34
44198;BME280;30157;55.512;37.764;2022-10-16T03:03:39;101325.84;;;1.07;78.14
44198;BME280;30157;55.512;37.764;2022-10-16T03:06:05;101343.28;;;1.14;78.30
44198;BME280;30157;55.512;37.764;2022-10-16T03:08:31;101323.00;;;1.02;78.30
44198;BME280;30157;55.512;37.764;2022-10-16T03:10:57;101347.44;;;1.12;78.42
44198;BME280;30157;55.512;37.764;2022-10-16T03:13:22;101354.69;;;1.19;78.47
44198;BME280;30157;55.512;37.764;2022-10-16T03:15:48;101358.81;;;1.17;78.56
44198;BME280;30157;55.512;37.764;2022-10-16T03:18:14;101338.44;;;1.04;78.46
44198;BME280;30157;55.512;37.764;2022-10-16T03:20:40;101329.25;;;0.92;78.44
44198;BME280;30157;55.512;37.764;2022-10-16T03:23:06;101346.84;;;1.01;78.81
44198;BME280;30157;55.512;37.764;2022-10-16T03:25:33;101302.44;;;0.71;78.48
44198;BME280;30157;55.512;37.764;2022-10-16T03:27:59;101365.06;;;1.07;78.43
44198;BME280;30157;55.512;37.764;2022-10-16T03:30:27;101358.72;;;1.00;78.57
44198;BME280;30157;55.512;37.764;2022-10-16T03:32:53;101347.31;;;0.95;78.69
44198;BME280;30157;55.512;37.764;2022-10-16T03:35:20;101365.78;;;1.05;78.88
44198;BME280;30157;55.512;37.764;2022-10-16T03:37:46;101361.00;;;0.96;78.77
44198;BME280;30157;55.512;37.764;2022-10-16T03:40:11;101366.22;;;0.97;78.87
44198;BME280;30157;55.512;37.764;2022-10-16T03:42:37;101344.16;;;0.84;78.68
44198;BME280;30157;55.512;37.764;2022-10-16T03:45:04;101369.84;;;1.01;78.73
44198;BME280;30157;55.512;37.764;2022-10-16T03:47:30;101375.75;;;1.00;78.60
44198;BME280;30157;55.512;37.764;2022-10-16T03:49:56;101371.41;;;0.99;78.63
44198;BME280;30157;55.512;37.764;2022-10-16T03:52:21;101357.22;;;0.89;78.85
44198;BME280;30157;55.512;37.764;2022-10-16T03:54:47;101372.03;;;0.95;78.86
44198;BME280;30157;55.512;37.764;2022-10-16T03:57:12;101372.13;;;0.96;78.67
44198;BME280;30157;55.512;37.764;2022-10-16T03:59:38;101348.38;;;0.84;78.16
44198;BME280;30157;55.512;37.764;2022-10-16T04:02:03;101375.38;;;0.94;78.61
44198;BME280;30157;55.512;37.764;2022-10-16T04:04:29;101364.69;;;0.86;78.64
44198;BME280;30157;55.512;37.764;2022-10-16T04:06:55;101384.03;;;0.96;78.74
44198;BME280;30157;55.512;37.764;2022-10-16T04:09:20;101333.91;;;0.70;78.79
44198;BME280;30157;55.512;37.764;2022-10-16T04:11:46;101314.75;;;0.63;78.72
44198;BME280;30157;55.512;37.764;2022-10-16T04:14:12;101378.47;;;1.03;78.90
44198;BME280;30157;55.512;37.764;2022-10-16T04:16:37;101371.16;;;0.94;78.76
44198;BME280;30157;55.512;37.764;2022-10-16T04:19:03;101367.69;;;0.94;78.63
44198;BME280;30157;55.512;37.764;2022-10-16T04:21:28;101383.59;;;1.03;78.65
44198;BME280;30157;55.512;37.764;2022-10-16T04:23:54;101349.16;;;0.83;78.61
44198;BME280;30157;55.512;37.764;2022-10-16T04:26:20;101383.75;;;1.06;78.84
44198;BME280;30157;55.512;37.764;2022-10-16T04:28:45;101392.75;;;1.14;78.58
44198;BME280;30157;55.512;37.764;2022-10-16T04:31:11;101374.34;;;1.20;78.43
44198;BME280;30157;55.512;37.764;2022-10-16T04:33:37;101367.75;;;1.85;78.04
44198;BME280;30157;55.512;37.764;2022-10-16T04:36:03;101376.75;;;2.74;76.61
44198;BME280;30157;55.512;37.764;2022-10-16T04:38:29;101335.06;;;3.29;74.31
44198;BME280;30157;55.512;37.764;2022-10-16T04:40:55;101379.56;;;4.20;73.17
44198;BME280;30157;55.512;37.764;2022-10-16T04:43:21;101356.19;;;4.53;71.53
44198;BME280;30157;55.512;37.764;2022-10-16T04:45:47;101385.38;;;5.14;70.42
44198;BME280;30157;55.512;37.764;2022-10-16T04:48:12;101370.38;;;5.25;68.54
44198;BME280;30157;55.512;37.764;2022-10-16T04:50:38;101382.75;;;5.54;67.60
44198;BME280;30157;55.512;37.764;2022-10-16T04:53:05;101380.84;;;5.93;66.90
44198;BME280;30157;55.512;37.764;2022-10-16T04:55:31;101381.25;;;6.49;65.17
44198;BME280;30157;55.512;37.764;2022-10-16T04:57:57;101381.59;;;7.06;63.46
44198;BME280;30157;55.512;37.764;2022-10-16T05:00:25;101378.94;;;7.56;61.97
44198;BME280;30157;55.512;37.764;2022-10-16T05:02:51;101339.56;;;7.64;60.36
44198;BME280;30157;55.512;37.764;2022-10-16T05:05:17;101371.81;;;8.04;59.69
44198;BME280;30157;55.512;37.764;2022-10-16T05:07:46;101338.47;;;8.13;58.97
44198;BME280;30157;55.512;37.764;2022-10-16T05:10:11;101323.44;;;8.30;58.24
44198;BME280;30157;55.512;37.764;2022-10-16T05:12:37;101385.63;;;8.94;57.27
44198;BME280;30157;55.512;37.764;2022-10-16T05:15:03;101380.19;;;9.17;55.57
44198;BME280;30157;55.512;37.764;2022-10-16T05:17:29;101359.81;;;9.32;55.50
44198;BME280;30157;55.512;37.764;2022-10-16T05:19:55;101379.66;;;9.65;54.33
44198;BME280;30157;55.512;37.764;2022-10-16T05:22:21;101246.63;;;8.93;53.44
44198;BME280;30157;55.512;37.764;2022-10-16T05:24:47;101338.16;;;9.30;52.87
44198;BME280;30157;55.512;37.764;2022-10-16T05:27:12;101330.81;;;8.79;53.16
44198;BME280;30157;55.512;37.764;2022-10-16T05:29:45;101382.00;;;9.21;53.16
44198;BME280;30157;55.512;37.764;2022-10-16T05:32:13;101372.09;;;9.39;52.37
44198;BME280;30157;55.512;37.764;2022-10-16T05:34:39;101391.44;;;9.54;52.22
44198;BME280;30157;55.512;37.764;2022-10-16T05:37:07;101388.38;;;9.34;51.77
44198;BME280;30157;55.512;37.764;2022-10-16T05:39:33;101396.91;;;10.03;50.94
44198;BME280;30157;55.512;37.764;2022-10-16T05:41:59;101310.97;;;9.86;49.85
44198;BME280;30157;55.512;37.764;2022-10-16T05:44:24;101404.59;;;10.36;49.74
44198;BME280;30157;55.512;37.764;2022-10-16T05:46:50;101367.97;;;10.64;48.99
44198;BME280;30157;55.512;37.764;2022-10-16T05:49:16;101339.47;;;10.68;48.63
44198;BME280;30157;55.512;37.764;2022-10-16T05:51:41;101383.34;;;11.51;47.18
44198;BME280;30157;55.512;37.764;2022-10-16T05:54:08;101379.09;;;11.54;46.55
44198;BME280;30157;55.512;37.764;2022-10-16T05:56:34;101361.97;;;11.67;45.49
44198;BME280;30157;55.512;37.764;2022-10-16T05:59:00;101401.38;;;10.91;46.99
44198;BME280;30157;55.512;37.764;2022-10-16T06:01:25;101393.81;;;11.54;46.37
44198;BME280;30157;55.512;37.764;2022-10-16T06:03:52;101394.22;;;11.28;45.08
44198;BME280;30157;55.512;37.764;2022-10-16T06:06:22;101349.44;;;10.92;45.10
44198;BME280;30157;55.512;37.764;2022-10-16T06:08:49;101394.28;;;11.30;46.09
44198;BME280;30157;55.512;37.764;2022-10-16T06:11:17;101399.13;;;11.09;45.73
44198;BME280;30157;55.512;37.764;2022-10-16T06:13:44;101402.72;;;11.70;44.87
44198;BME280;30157;55.512;37.764;2022-10-16T06:16:12;101420.22;;;11.28;46.27
44198;BME280;30157;55.512;37.764;2022-10-16T06:18:38;101409.69;;;11.19;46.57
44198;BME280;30157;55.512;37.764;2022-10-16T06:21:13;101417.47;;;11.69;44.24
44198;BME280;30157;55.512;37.764;2022-10-16T06:23:39;101407.22;;;11.80;45.19
44198;BME280;30157;55.512;37.764;2022-10-16T06:26:09;101402.34;;;12.00;43.43
44198;BME280;30157;55.512;37.764;2022-10-16T06:28:35;101401.94;;;12.31;43.94
44198;BME280;30157;55.512;37.764;2022-10-16T06:31:03;101401.81;;;12.24;44.35
44198;BME280;30157;55.512;37.764;2022-10-16T06:33:29;101409.59;;;12.92;43.52
44198;BME280;30157;55.512;37.764;2022-10-16T06:36:00;101363.41;;;12.77;41.95
44198;BME280;30157;55.512;37.764;2022-10-16T06:38:26;101360.34;;;13.17;42.68
44198;BME280;30157;55.512;37.764;2022-10-16T06:40:53;101411.53;;;14.19;41.40
44198;BME280;30157;55.512;37.764;2022-10-16T06:43:19;101377.28;;;13.70;40.64
44198;BME280;30157;55.512;37.764;2022-10-16T06:45:59;101320.38;;;13.21;40.18
44198;BME280;30157;55.512;37.764;2022-10-16T06:48:26;101406.31;;;14.18;40.31
44198;BME280;30157;55.512;37.764;2022-10-16T06:50:59;101405.66;;;14.62;39.82
44198;BME280;30157;55.512;37.764;2022-10-16T06:53:27;101380.31;;;14.39;39.38
44198;BME280;30157;55.512;37.764;2022-10-16T06:55:52;101373.91;;;13.82;39.51
44198;BME280;30157;55.512;37.764;2022-10-16T06:58:18;101324.91;;;13.43;39.21
44198;BME280;30157;55.512;37.764;2022-10-16T07:00:44;101359.16;;;13.85;39.10
44198;BME280;30157;55.512;37.764;2022-10-16T07:03:10;101406.44;;;14.47;39.15
44198;BME280;30157;55.512;37.764;2022-10-16T07:05:43;101400.47;;;14.68;39.03
44198;BME280;30157;55.512;37.764;2022-10-16T07:08:08;101408.44;;;15.55;38.02
44198;BME280;30157;55.512;37.764;2022-10-16T07:10:34;101378.78;;;15.57;37.30
44198;BME280;30157;55.512;37.764;2022-10-16T07:13:00;101411.91;;;16.08;36.97
44198;BME280;30157;55.512;37.764;2022-10-16T07:15:27;101406.56;;;16.48;36.60
44198;BME280;30157;55.512;37.764;2022-10-16T07:17:53;101411.00;;;16.23;35.86
44198;BME280;30157;55.512;37.764;2022-10-16T07:20:19;101392.72;;;15.66;36.39
44198;BME280;30157;55.512;37.764;2022-10-16T07:22:45;101420.56;;;16.39;35.62
44198;BME280;30157;55.512;37.764;2022-10-16T07:25:11;101420.66;;;16.02;36.13
44198;BME280;30157;55.512;37.764;2022-10-16T07:27:38;101404.13;;;15.85;36.54
44198;BME280;30157;55.512;37.764;2022-10-16T07:30:04;101404.09;;;15.52;36.93
44198;BME280;30157;55.512;37.764;2022-10-16T07:32:31;101426.69;;;14.94;37.35
44198;BME280;30157;55.512;37.764;2022-10-16T07:34:57;101418.06;;;15.59;36.86
44198;BME280;30157;55.512;37.764;2022-10-16T07:37:23;101420.47;;;16.61;35.45
44198;BME280;30157;55.512;37.764;2022-10-16T07:39:49;101404.97;;;15.54;36.11
44198;BME280;30157;55.512;37.764;2022-10-16T07:42:15;101382.25;;;15.95;35.89
44198;BME280;30157;55.512;37.764;2022-10-16T07:44:43;101410.06;;;16.39;34.40
44198;BME280;30157;55.512;37.764;2022-10-16T07:47:09;101383.72;;;16.70;34.67
44198;BME280;30157;55.512;37.764;2022-10-16T07:49:35;101411.91;;;16.17;34.87
44198;BME280;30157;55.512;37.764;2022-10-16T07:52:00;101361.38;;;15.28;35.52
44198;BME280;30157;55.512;37.764;2022-10-16T07:54:26;101397.09;;;16.11;35.35
44198;BME280;30157;55.512;37.764;2022-10-16T07:56:52;101413.59;;;16.34;35.16
44198;BME280;30157;55.512;37.764;2022-10-16T07:59:17;101413.38;;;16.92;34.53
44198;BME280;30157;55.512;37.764;2022-10-16T08:01:43;101410.59;;;17.17;34.04
44198;BME280;30157;55.512;37.764;2022-10-16T08:04:09;101394.06;;;17.03;33.56
44198;BME280;30157;55.512;37.764;2022-10-16T08:06:36;101421.00;;;17.26;33.71
44198;BME280;30157;55.512;37.764;2022-10-16T08:09:03;101413.38;;;16.85;33.98
44198;BME280;30157;55.512;37.764;2022-10-16T08:11:29;101410.63;;;17.08;33.72
44198;BME280;30157;55.512;37.764;2022-10-16T08:13:55;101414.78;;;17.41;33.42
44198;BME280;30157;55.512;37.764;2022-10-16T08:16:21;101283.09;;;16.96;33.44
44198;BME280;30157;55.512;37.764;2022-10-16T08:18:47;101413.53;;;17.84;32.64
44198;BME280;30157;55.512;37.764;2022-10-16T08:21:15;101392.84;;;17.49;31.98
44198;BME280;30157;55.512;37.764;2022-10-16T08:23:42;101405.13;;;17.46;32.88
44198;BME280;30157;55.512;37.764;2022-10-16T08:26:08;101415.78;;;17.26;33.91
44198;BME280;30157;55.512;37.764;2022-10-16T08:28:35;101415.16;;;16.78;34.01
44198;BME280;30157;55.512;37.764;2022-10-16T08:31:14;101398.72;;;16.42;34.21
44198;BME280;30157;55.512;37.764;2022-10-16T08:33:43;101386.47;;;16.47;33.49
44198;BME280;30157;55.512;37.764;2022-10-16T08:36:11;101362.72;;;16.78;33.64
44198;BME280;30157;55.512;37.764;2022-10-16T08:38:37;101383.63;;;16.95;33.65
44198;BME280;30157;55.512;37.764;2022-10-16T08:49:20;101401.50;;;15.94;35.43
44198;BME280;30157;55.512;37.764;2022-10-16T08:51:46;101387.50;;;15.95;35.26
44198;BME280;30157;55.512;37.764;2022-10-16T08:54:37;101371.75;;;16.07;34.85
44198;BME280;30157;55.512;37.764;2022-10-16T08:57:16;101363.06;;;15.98;34.97
44198;BME280;30157;55.512;37.764;2022-10-16T08:59:42;101382.16;;;16.35;34.81
44198;BME280;30157;55.512;37.764;2022-10-16T09:02:34;101385.59;;;16.48;34.01
44198;BME280;30157;55.512;37.764;2022-10-16T09:10:13;101370.94;;;15.03;36.05
44198;BME280;30157;55.512;37.764;2022-10-16T09:18:14;101395.75;;;13.99;37.58
44198;BME280;30157;55.512;37.764;2022-10-16T09:23:41;101383.75;;;13.14;39.14
44198;BME280;30157;55.512;37.764;2022-10-16T09:26:11;101392.69;;;13.39;39.40
44198;BME280;30157;55.512;37.764;2022-10-16T09:28:38;101392.69;;;13.36;39.16
44198;BME280;30157;55.512;37.764;2022-10-16T09:31:04;101382.03;;;13.17;39.20
44198;BME280;30157;55.512;37.764;2022-10-16T09:33:34;101356.72;;;13.05;39.22
44198;BME280;30157;55.512;37.764;2022-10-16T09:36:03;101348.31;;;13.34;39.20
44198;BME280;30157;55.512;37.764;2022-10-16T09:38:34;101391.84;;;13.38;38.63
44198;BME280;30157;55.512;37.764;2022-10-16T09:41:03;101379.41;;;13.13;38.91
44198;BME280;30157;55.512;37.764;2022-10-16T09:46:25;101384.66;;;13.17;39.58
44198;BME280;30157;55.512;37.764;2022-10-16T09:48:58;101335.22;;;13.33;39.28
44198;BME280;30157;55.512;37.764;2022-10-16T09:51:32;101319.53;;;13.23;38.93
44198;BME280;30157;55.512;37.764;2022-10-16T09:54:01;101390.94;;;13.36;38.84
44198;BME280;30157;55.512;37.764;2022-10-16T09:56:32;101386.78;;;13.60;38.40
44198;BME280;30157;55.512;37.764;2022-10-16T09:59:02;101358.81;;;13.42;39.03
44198;BME280;30157;55.512;37.764;2022-10-16T10:01:47;101334.31;;;13.26;37.64
44198;BME280;30157;55.512;37.764;2022-10-16T10:04:14;101351.84;;;13.39;38.28
44198;BME280;30157;55.512;37.764;2022-10-16T10:06:45;101378.91;;;13.52;38.73
44198;BME280;30157;55.512;37.764;2022-10-16T10:09:23;101378.16;;;13.70;38.54
44198;BME280;30157;55.512;37.764;2022-10-16T10:11:54;101236.56;;;12.68;38.63
44198;BME280;30157;55.512;37.764;2022-10-16T10:14:44;101335.03;;;13.08;39.05
44198;BME280;30157;55.512;37.764;2022-10-16T10:17:31;101379.53;;;13.30;39.59
44198;BME280;30157;55.512;37.764;2022-10-16T10:19:58;101379.44;;;13.19;39.28
44198;BME280;30157;55.512;37.764;2022-10-16T10:22:39;101366.50;;;13.31;39.71
44198;BME280;30157;55.512;37.764;2022-10-16T10:28:14;101378.53;;;13.15;39.22
44198;BME280;30157;55.512;37.764;2022-10-16T10:36:30;101343.06;;;13.33;38.74
44198;BME280;30157;55.512;37.764;2022-10-16T10:50:57;101359.53;;;13.27;39.76
44198;BME280;30157;55.512;37.764;2022-10-16T10:56:09;101333.53;;;13.33;39.37
44198;BME280;30157;55.512;37.764;2022-10-16T11:01:49;101357.03;;;13.38;38.91
44198;BME280;30157;55.512;37.764;2022-10-16T11:04:39;101314.28;;;13.22;38.85
44198;BME280;30157;55.512;37.764;2022-10-16T11:07:28;101354.28;;;13.22;39.03
44198;BME280;30157;55.512;37.764;2022-10-16T11:10:23;101347.41;;;13.31;39.63
44198;BME280;30157;55.512;37.764;2022-10-16T11:13:10;101326.44;;;13.17;39.30
44198;BME280;30157;55.512;37.764;2022-10-16T11:15:41;101336.91;;;13.23;39.12
44198;BME280;30157;55.512;37.764;2022-10-16T11:18:22;101301.91;;;12.96;39.11
44198;BME280;30157;55.512;37.764;2022-10-16T11:20:59;101261.59;;;12.54;39.52
44198;BME280;30157;55.512;37.764;2022-10-16T11:26:20;101341.25;;;13.24;40.31
44198;BME280;30157;55.512;37.764;2022-10-16T11:28:53;101163.00;;;12.03;39.86
44198;BME280;30157;55.512;37.764;2022-10-16T11:32:01;101330.81;;;13.22;39.55
44198;BME280;30157;55.512;37.764;2022-10-16T11:34:49;101337.81;;;13.28;40.06
44198;BME280;30157;55.512;37.764;2022-10-16T11:37:23;101328.88;;;12.98;40.20
44198;BME280;30157;55.512;37.764;2022-10-16T11:39:54;101227.66;;;12.46;40.24
44198;BME280;30157;55.512;37.764;2022-10-16T11:42:32;101281.69;;;12.69;40.00
44198;BME280;30157;55.512;37.764;2022-10-16T11:45:13;101270.31;;;12.59;40.02
44198;BME280;30157;55.512;37.764;2022-10-16T11:55:45;101172.19;;;11.76;40.36
44198;BME280;30157;55.512;37.764;2022-10-16T12:00:40;101306.72;;;12.56;40.43
44198;BME280;30157;55.512;37.764;2022-10-16T12:03:39;101319.00;;;12.65;40.95
44198;BME280;30157;55.512;37.764;2022-10-16T12:08:39;101319.22;;;12.89;40.15
44198;BME280;30157;55.512;37.764;2022-10-16T12:11:20;101315.00;;;12.99;40.55
44198;BME280;30157;55.512;37.764;2022-10-16T12:13:47;101318.53;;;13.09;40.45
44198;BME280;30157;55.512;37.764;2022-10-16T12:18:46;101266.81;;;12.57;40.14
44198;BME280;30157;55.512;37.764;2022-10-16T12:21:14;101300.84;;;12.72;40.43
44198;BME280;30157;55.512;37.764;2022-10-16T12:23:58;101267.72;;;12.59;40.48
44198;BME280;30157;55.512;37.764;2022-10-16T12:26:33;101311.19;;;12.66;40.60
44198;BME280;30157;55.512;37.764;2022-10-16T12:31:48;101317.25;;;12.65;41.01
44198;BME280;30157;55.512;37.764;2022-10-16T12:34:23;101302.31;;;12.47;40.81
44198;BME280;30157;55.512;37.764;2022-10-16T12:36:50;101304.94;;;12.49;41.06
44198;BME280;30157;55.512;37.764;2022-10-16T12:39:22;101310.22;;;12.58;41.12
44198;BME280;30157;55.512;37.764;2022-10-16T12:42:00;101304.94;;;12.49;41.18
44198;BME280;30157;55.512;37.764;2022-10-16T12:44:32;101283.00;;;12.26;40.96
44198;BME280;30157;55.512;37.764;2022-10-16T12:46:57;101294.47;;;12.44;41.08
44198;BME280;30157;55.512;37.764;2022-10-16T12:49:37;101261.34;;;12.29;40.86
44198;BME280;30157;55.512;37.764;2022-10-16T12:52:39;101296.28;;;12.54;41.10
44198;BME280;30157;55.512;37.764;2022-10-16T12:55:15;101260.41;;;12.25;41.31
44198;BME280;30157;55.512;37.764;2022-10-16T13:00:50;101307.75;;;12.70;41.53
44198;BME280;30157;55.512;37.764;2022-10-16T13:14:27;101285.63;;;12.31;41.67
44198;BME280;30157;55.512;37.764;2022-10-16T13:25:18;101303.25;;;12.54;41.43
44198;BME280;30157;55.512;37.764;2022-10-16T13:27:58;101216.97;;;12.20;40.88
44198;BME280;30157;55.512;37.764;2022-10-16T13:33:36;101269.41;;;13.65;38.89
44198;BME280;30157;55.512;37.764;2022-10-16T13:36:04;101293.16;;;14.19;37.92
44198;BME280;30157;55.512;37.764;2022-10-16T13:38:32;101150.16;;;13.34;38.02
44198;BME280;30157;55.512;37.764;2022-10-16T13:41:03;101282.78;;;14.39;37.44
44198;BME280;30157;55.512;37.764;2022-10-16T13:43:52;101305.31;;;14.03;38.14
44198;BME280;30157;55.512;37.764;2022-10-16T13:46:23;101291.97;;;13.56;39.25
44198;BME280;30157;55.512;37.764;2022-10-16T13:49:00;101241.34;;;13.30;39.12
44198;BME280;30157;55.512;37.764;2022-10-16T13:51:26;101199.00;;;12.46;39.59
44198;BME280;30157;55.512;37.764;2022-10-16T13:53:54;101272.53;;;12.25;41.17
44198;BME280;30157;55.512;37.764;2022-10-16T13:56:29;101300.53;;;12.44;41.40
44198;BME280;30157;55.512;37.764;2022-10-16T13:59:06;101312.44;;;12.22;41.98
44198;BME280;30157;55.512;37.764;2022-10-16T14:01:41;101317.94;;;11.81;43.49
44198;BME280;30157;55.512;37.764;2022-10-16T14:04:08;101312.97;;;11.38;43.98
44198;BME280;30157;55.512;37.764;2022-10-16T14:06:36;101269.78;;;10.44;45.27
44198;BME280;30157;55.512;37.764;2022-10-16T14:11:32;101309.22;;;10.26;46.54
44198;BME280;30157;55.512;37.764;2022-10-16T14:13:58;101279.03;;;9.88;46.92
44198;BME280;30157;55.512;37.764;2022-10-16T14:16:29;101313.75;;;9.95;47.62
44198;BME280;30157;55.512;37.764;2022-10-16T14:19:00;101308.34;;;9.84;47.88
44198;BME280;30157;55.512;37.764;2022-10-16T14:21:27;101310.72;;;9.75;48.08
44198;BME280;30157;55.512;37.764;2022-10-16T14:23:53;101254.47;;;9.33;48.71
44198;BME280;30157;55.512;37.764;2022-10-16T14:26:22;101311.25;;;9.60;48.56
44198;BME280;30157;55.512;37.764;2022-10-16T14:29:00;101313.63;;;9.51;49.12
44198;BME280;30157;55.512;37.764;2022-10-16T14:31:33;101296.03;;;9.37;49.17
44198;BME280;30157;55.512;37.764;2022-10-16T14:34:01;101283.63;;;9.24;49.37
44198;BME280;30157;55.512;37.764;2022-10-16T14:36:27;101302.63;;;9.24;49.51
44198;BME280;30157;55.512;37.764;2022-10-16T14:39:18;101257.16;;;8.99;49.81
44198;BME280;30157;55.512;37.764;2022-10-16T14:41:47;101286.72;;;9.09;49.88
44198;BME280;30157;55.512;37.764;2022-10-16T14:44:13;101318.00;;;9.17;49.92
44198;BME280;30157;55.512;37.764;2022-10-16T14:46:42;101321.41;;;9.14;50.14
44198;BME280;30157;55.512;37.764;2022-10-16T14:51:38;101296.63;;;8.90;50.47
44198;BME280;30157;55.512;37.764;2022-10-16T14:54:08;101272.75;;;8.69;50.75
44198;BME280;30157;55.512;37.764;2022-10-16T14:59:36;101324.25;;;8.90;51.19
44198;BME280;30157;55.512;37.764;2022-10-16T15:04:44;101320.50;;;8.80;51.25
44198;BME280;30157;55.512;37.764;2022-10-16T15:07:14;101279.13;;;8.48;51.47
44198;BME280;30157;55.512;37.764;2022-10-16T15:09:42;101320.84;;;8.59;52.18